Time;durP1;ratioP1;P1;durP2;ratioP2;P2;SDS_P1;SDS_P2;PMS_P1;PMS_P2;Temp;Humidity;BMP_temperature;BMP_pressure;BME280_temperature;BME280_humidity;BME280_pressure;Samples;Min_cycle;Max_cycle;Signal;HPM_P1;HPM_P2
2022/05/31 00:01:03;;;;;;;3.95;0.60;;;;;;;;;;5014874;28;20478;-72
2022/05/31 00:03:29;;;;;;;2.72;0.80;;;;;;;;;;5020605;28;20046;-73
2022/05/31 00:05:55;;;;;;;2.63;0.70;;;;;;;;;;5011935;28;20034;-72
2022/05/31 00:08:21;;;;;;;8.43;1.25;;;;;;;;;;5020928;28;20033;-72
2022/05/31 00:10:47;;;;;;;2.75;0.60;;;;;;;;;;5019548;28;20037;-72
2022/05/31 00:13:13;;;;;;;3.78;0.95;;;;;;;;;;5013346;28;20498;-72
2022/05/31 00:15:39;;;;;;;4.75;1.08;;;;;;;;;;5021216;28;20074;-72
2022/05/31 00:18:05;;;;;;;6.50;1.13;;;;;;;;;;5021453;28;20041;-72
2022/05/31 00:20:31;;;;;;;4.80;0.90;;;;;;;;;;5019454;28;20064;-73
2022/05/31 00:22:57;;;;;;;3.28;0.70;;;;;;;;;;5017828;28;20501;-73
2022/05/31 00:25:23;;;;;;;3.05;0.60;;;;;;;;;;5020222;28;20030;-72
2022/05/31 00:27:50;;;;;;;3.80;0.95;;;;;;;;;;5021216;28;20084;-73
2022/05/31 00:30:16;;;;;;;1.98;0.68;;;;;;;;;;5020663;28;20037;-72
2022/05/31 00:32:47;;;;;;;5.15;0.63;;;;;;;;;;5018111;28;20033;-72
2022/05/31 00:35:19;;;;;;;2.40;0.65;;;;;;;;;;5020239;28;20084;-72
2022/05/31 00:37:45;;;;;;;4.80;1.05;;;;;;;;;;5024187;28;20068;-72
2022/05/31 00:40:13;;;;;;;5.03;1.05;;;;;;;;;;5024642;28;20033;-72
2022/05/31 00:42:51;;;;;;;4.82;0.70;;;;;;;;;;5022990;28;20059;-73
2022/05/31 00:45:18;;;;;;;5.40;1.00;;;;;;;;;;5022888;28;20037;-73
2022/05/31 00:47:44;;;;;;;2.65;0.77;;;;;;;;;;5020793;28;20033;-73
2022/05/31 00:50:25;;;;;;;6.88;1.20;;;;;;;;;;5025506;28;20037;-72
2022/05/31 00:52:52;;;;;;;1.92;0.60;;;;;;;;;;5022933;28;20032;-72
2022/05/31 00:55:22;;;;;;;3.65;0.90;;;;;;;;;;5026513;28;20040;-72
2022/05/31 00:57:50;;;;;;;4.85;0.90;;;;;;;;;;5026407;28;20067;-73
2022/05/31 01:00:17;;;;;;;7.90;0.70;;;;;;;;;;5025577;28;20033;-72
2022/05/31 01:02:44;;;;;;;4.07;0.88;;;;;;;;;;5028874;28;20033;-73
2022/05/31 01:05:11;;;;;;;4.10;0.90;;;;;;;;;;5027894;28;20109;-73
2022/05/31 01:07:37;;;;;;;3.60;0.88;;;;;;;;;;5022986;28;20175;-72
2022/05/31 01:10:11;;;;;;;3.50;0.90;;;;;;;;;;5022143;28;20522;-73
2022/05/31 01:12:37;;;;;;;3.45;0.75;;;;;;;;;;5026228;28;20041;-73
2022/05/31 01:15:04;;;;;;;3.40;0.90;;;;;;;;;;5027550;28;20045;-72
2022/05/31 01:17:30;;;;;;;4.28;0.80;;;;;;;;;;5017673;28;20071;-72
2022/05/31 01:19:56;;;;;;;5.43;0.98;;;;;;;;;;5019286;28;20116;-73
2022/05/31 01:22:32;;;;;;;4.80;0.93;;;;;;;;;;5016393;28;20345;-72
2022/05/31 01:25:11;;;;;;;5.65;0.90;;;;;;;;;;5020793;28;20811;-73
2022/05/31 01:27:52;;;;;;;5.10;0.95;;;;;;;;;;5023096;28;20085;-72
2022/05/31 01:30:19;;;;;;;4.68;0.90;;;;;;;;;;5020958;28;20491;-72
2022/05/31 01:32:57;;;;;;;6.65;0.55;;;;;;;;;;5023652;28;20664;-72
2022/05/31 01:35:26;;;;;;;3.65;0.75;;;;;;;;;;5019843;28;20159;-73
2022/05/31 01:37:54;;;;;;;6.18;0.90;;;;;;;;;;5020951;28;20034;-72
2022/05/31 01:40:25;;;;;;;4.07;0.70;;;;;;;;;;5023426;28;20488;-72
2022/05/31 01:42:52;;;;;;;4.88;0.70;;;;;;;;;;5024072;28;20065;-72
2022/05/31 01:45:19;;;;;;;4.00;0.90;;;;;;;;;;5014222;28;20041;-73
2022/05/31 01:47:45;;;;;;;4.50;0.82;;;;;;;;;;5024002;28;20033;-72
2022/05/31 01:50:14;;;;;;;2.20;0.60;;;;;;;;;;5024992;28;20146;-72
2022/05/31 01:52:40;;;;;;;2.55;0.60;;;;;;;;;;5023656;28;20029;-72
2022/05/31 01:55:07;;;;;;;3.70;0.60;;;;;;;;;;5018997;28;20025;-72
2022/05/31 01:57:34;;;;;;;3.47;0.55;;;;;;;;;;5019811;28;20064;-73
2022/05/31 02:00:02;;;;;;;4.20;0.90;;;;;;;;;;5023842;28;20583;-72
2022/05/31 02:02:29;;;;;;;6.43;0.95;;;;;;;;;;5025091;28;20751;-72
2022/05/31 02:04:55;;;;;;;4.15;1.00;;;;;;;;;;5025784;28;20034;-73
2022/05/31 02:07:23;;;;;;;4.30;1.10;;;;;;;;;;5018541;28;20079;-73
2022/05/31 02:09:50;;;;;;;2.78;0.65;;;;;;;;;;5018930;28;20034;-72
2022/05/31 02:12:16;;;;;;;4.93;1.15;;;;;;;;;;5022616;28;20037;-73
2022/05/31 02:14:42;;;;;;;5.28;0.90;;;;;;;;;;5019009;28;20044;-73
2022/05/31 02:17:08;;;;;;;5.95;1.17;;;;;;;;;;5021091;28;20034;-73
2022/05/31 02:19:34;;;;;;;5.40;1.20;;;;;;;;;;5017831;28;20052;-72
2022/05/31 02:22:02;;;;;;;4.22;0.95;;;;;;;;;;5021464;28;20048;-72
2022/05/31 02:24:28;;;;;;;3.53;0.85;;;;;;;;;;5017117;28;20034;-73
2022/05/31 02:26:55;;;;;;;4.63;0.90;;;;;;;;;;5023699;28;20033;-72
2022/05/31 02:29:24;;;;;;;7.32;1.10;;;;;;;;;;5019896;28;20137;-73
2022/05/31 02:31:51;;;;;;;4.47;0.80;;;;;;;;;;5021993;28;20360;-72
2022/05/31 02:34:18;;;;;;;3.33;0.70;;;;;;;;;;5018408;28;20657;-73
2022/05/31 02:36:44;;;;;;;5.00;0.93;;;;;;;;;;5018789;28;20033;-72
2022/05/31 02:39:10;;;;;;;6.50;1.08;;;;;;;;;;5018813;28;20037;-73
2022/05/31 02:41:37;;;;;;;3.90;1.10;;;;;;;;;;5016736;28;20056;-72
2022/05/31 02:44:03;;;;;;;7.75;1.10;;;;;;;;;;5020480;28;20046;-73
2022/05/31 02:46:29;;;;;;;7.40;1.00;;;;;;;;;;5020891;28;20427;-72
2022/05/31 02:48:55;;;;;;;4.25;0.80;;;;;;;;;;5023094;28;20091;-72
2022/05/31 02:51:21;;;;;;;2.35;0.70;;;;;;;;;;5017263;28;20164;-73
2022/05/31 02:53:47;;;;;;;4.57;0.98;;;;;;;;;;5022313;28;20030;-72
2022/05/31 02:56:13;;;;;;;4.97;1.00;;;;;;;;;;5020186;28;20026;-73
2022/05/31 02:58:39;;;;;;;4.07;1.35;;;;;;;;;;5015549;28;20030;-72
2022/05/31 03:01:25;;;;;;;5.93;1.30;;;;;;;;;;5018135;28;20487;-74
2022/05/31 03:03:51;;;;;;;8.02;1.10;;;;;;;;;;5014881;28;20029;-72
2022/05/31 03:06:18;;;;;;;3.53;1.02;;;;;;;;;;5022080;28;20084;-72
2022/05/31 03:08:44;;;;;;;3.22;0.70;;;;;;;;;;5017895;28;20052;-72
2022/05/31 03:11:14;;;;;;;3.90;0.80;;;;;;;;;;5021318;28;20042;-72
2022/05/31 03:13:41;;;;;;;4.43;0.70;;;;;;;;;;5021630;28;20095;-72
2022/05/31 03:16:07;;;;;;;7.57;1.00;;;;;;;;;;5016450;28;20092;-72
2022/05/31 03:18:39;;;;;;;5.15;0.80;;;;;;;;;;5017609;28;20064;-72
2022/05/31 03:21:09;;;;;;;3.55;0.90;;;;;;;;;;5020703;28;21000;-72
2022/05/31 03:23:47;;;;;;;3.72;0.70;;;;;;;;;;5012084;28;20029;-72
2022/05/31 03:26:14;;;;;;;8.35;1.02;;;;;;;;;;5017060;28;20272;-72
2022/05/31 03:28:40;;;;;;;4.57;1.00;;;;;;;;;;5019999;28;20500;-72
2022/05/31 03:31:07;;;;;;;3.67;0.93;;;;;;;;;;5023778;28;20034;-72
2022/05/31 03:33:33;;;;;;;5.95;1.08;;;;;;;;;;5014338;28;20041;-72
2022/05/31 03:36:00;;;;;;;4.97;0.82;;;;;;;;;;5019027;28;20104;-72
2022/05/31 03:38:26;;;;;;;3.00;0.80;;;;;;;;;;5017899;28;20030;-72
2022/05/31 03:40:58;;;;;;;5.90;1.02;;;;;;;;;;5019908;28;20039;-72
2022/05/31 03:43:26;;;;;;;7.57;1.08;;;;;;;;;;5015647;28;20363;-73
2022/05/31 03:45:52;;;;;;;6.53;0.90;;;;;;;;;;5021871;28;20049;-73
2022/05/31 03:48:18;;;;;;;4.85;1.05;;;;;;;;;;5022874;28;20048;-72
2022/05/31 03:50:45;;;;;;;5.88;1.10;;;;;;;;;;5017780;28;20487;-73
2022/05/31 03:53:12;;;;;;;5.95;1.17;;;;;;;;;;5019111;28;20570;-72
2022/05/31 03:55:42;;;;;;;6.53;1.52;;;;;;;;;;5024914;28;20684;-73
2022/05/31 03:58:09;;;;;;;5.68;1.05;;;;;;;;;;5015520;28;20049;-72
2022/05/31 04:00:35;;;;;;;7.30;1.10;;;;;;;;;;5019557;28;20037;-72
2022/05/31 04:03:01;;;;;;;10.38;1.63;;;;;;;;;;5021303;28;20849;-72
2022/05/31 04:05:27;;;;;;;7.45;1.23;;;;;;;;;;5017238;28;20097;-73
2022/05/31 04:07:54;;;;;;;5.45;1.27;;;;;;;;;;5018844;28;20073;-72
2022/05/31 04:10:20;;;;;;;4.43;0.90;;;;;;;;;;5024203;28;20041;-72
2022/05/31 04:12:47;;;;;;;6.13;1.13;;;;;;;;;;5019877;28;20036;-72
2022/05/31 04:15:13;;;;;;;5.75;1.08;;;;;;;;;;5018909;28;20475;-73
2022/05/31 04:17:39;;;;;;;7.75;1.65;;;;;;;;;;5023665;28;20087;-72
2022/05/31 04:20:05;;;;;;;8.32;1.30;;;;;;;;;;5032647;28;20037;-72
2022/05/31 04:22:32;;;;;;;4.93;0.90;;;;;;;;;;5024466;28;20649;-73
2022/05/31 04:25:01;;;;;;;11.13;1.38;;;;;;;;;;5019347;28;20045;-73
2022/05/31 04:27:27;;;;;;;6.65;1.50;;;;;;;;;;5015520;28;20037;-72
2022/05/31 04:29:53;;;;;;;5.28;1.48;;;;;;;;;;5026569;28;20064;-73
2022/05/31 04:32:19;;;;;;;8.07;1.50;;;;;;;;;;5019167;28;20033;-72
2022/05/31 04:34:45;;;;;;;7.70;1.52;;;;;;;;;;5020802;28;20459;-72
2022/05/31 04:37:12;;;;;;;6.18;1.10;;;;;;;;;;5023662;28;20033;-72
2022/05/31 04:39:38;;;;;;;6.30;1.20;;;;;;;;;;5018825;28;20037;-72
2022/05/31 04:42:04;;;;;;;4.75;0.98;;;;;;;;;;5025193;28;20033;-72
2022/05/31 04:44:30;;;;;;;6.93;1.25;;;;;;;;;;5021434;28;20045;-73
2022/05/31 04:46:56;;;;;;;6.53;1.40;;;;;;;;;;5020227;28;20057;-72
2022/05/31 04:49:22;;;;;;;7.43;1.23;;;;;;;;;;5029020;28;20506;-72
2022/05/31 04:51:48;;;;;;;5.50;1.15;;;;;;;;;;5024266;28;20049;-72
2022/05/31 04:54:17;;;;;;;6.03;1.10;;;;;;;;;;5016512;28;20029;-72
2022/05/31 04:56:44;;;;;;;5.35;1.05;;;;;;;;;;5014062;28;20034;-72
2022/05/31 04:59:10;;;;;;;7.65;1.52;;;;;;;;;;5018942;28;20125;-72
2022/05/31 05:01:36;;;;;;;6.13;1.42;;;;;;;;;;5019596;28;20129;-73
2022/05/31 05:04:03;;;;;;;7.07;1.00;;;;;;;;;;5020997;28;20052;-72
2022/05/31 05:06:29;;;;;;;4.90;1.30;;;;;;;;;;5022697;28;20035;-73
2022/05/31 05:08:55;;;;;;;5.68;1.83;;;;;;;;;;5024351;28;20045;-72
2022/05/31 05:11:21;;;;;;;6.50;1.35;;;;;;;;;;5021318;28;20037;-72
2022/05/31 05:13:48;;;;;;;4.90;1.10;;;;;;;;;;5023164;28;20076;-72
2022/05/31 05:16:15;;;;;;;4.68;1.50;;;;;;;;;;5021240;28;20045;-72
2022/05/31 05:18:41;;;;;;;5.38;1.30;;;;;;;;;;5023191;28;20029;-72
2022/05/31 05:21:09;;;;;;;7.55;1.60;;;;;;;;;;5033581;28;20375;-73
2022/05/31 05:23:35;;;;;;;5.88;1.67;;;;;;;;;;5025185;28;20451;-72
2022/05/31 05:26:01;;;;;;;8.18;1.42;;;;;;;;;;5035195;28;20037;-72
2022/05/31 05:31:33;;;;;;;9.40;1.70;;;;;;;;;;5026135;28;20427;-72
2022/05/31 05:34:00;;;;;;;5.78;1.42;;;;;;;;;;5019461;28;20095;-72
2022/05/31 05:36:26;;;;;;;7.55;1.35;;;;;;;;;;5030678;28;20029;-72
2022/05/31 05:38:52;;;;;;;5.57;1.35;;;;;;;;;;5028266;28;20382;-72
2022/05/31 05:41:19;;;;;;;6.07;1.63;;;;;;;;;;5022276;28;20446;-72
2022/05/31 05:43:45;;;;;;;11.35;1.80;;;;;;;;;;5019198;28;20044;-72
2022/05/31 05:46:14;;;;;;;6.53;1.23;;;;;;;;;;5019143;28;20034;-73
2022/05/31 05:48:40;;;;;;;8.70;1.73;;;;;;;;;;5021824;28;20033;-72
2022/05/31 05:51:16;;;;;;;5.20;1.60;;;;;;;;;;5017880;28;20079;-72
2022/05/31 05:53:43;;;;;;;13.63;1.77;;;;;;;;;;5023427;28;20176;-72
2022/05/31 05:56:09;;;;;;;5.93;1.80;;;;;;;;;;5021617;28;20029;-72
2022/05/31 05:58:35;;;;;;;8.23;1.48;;;;;;;;;;5018494;28;20143;-72
2022/05/31 06:01:02;;;;;;;5.53;1.10;;;;;;;;;;5019587;28;20037;-72
2022/05/31 06:04:00;;;;;;;8.82;1.38;;;;;;;;;;5020052;28;20030;-73
2022/05/31 06:06:28;;;;;;;8.25;1.10;;;;;;;;;;5022969;28;20077;-72
2022/05/31 06:08:57;;;;;;;5.35;1.30;;;;;;;;;;5021958;28;20109;-73
2022/05/31 06:11:29;;;;;;;7.38;2.00;;;;;;;;;;5021252;28;20060;-72
2022/05/31 06:14:00;;;;;;;7.15;1.63;;;;;;;;;;5022360;28;20040;-72
2022/05/31 06:16:30;;;;;;;11.15;2.05;;;;;;;;;;5019367;28;20091;-73
2022/05/31 06:19:00;;;;;;;14.30;1.77;;;;;;;;;;5018381;28;20116;-72
2022/05/31 06:21:26;;;;;;;9.23;1.92;;;;;;;;;;5018808;28;20037;-73
2022/05/31 06:23:54;;;;;;;15.25;2.10;;;;;;;;;;5021537;28;20041;-73
2022/05/31 06:26:20;;;;;;;14.63;2.38;;;;;;;;;;5019948;28;20052;-73
2022/05/31 06:28:46;;;;;;;15.90;2.03;;;;;;;;;;5016845;28;20057;-72
2022/05/31 06:31:13;;;;;;;10.57;3.03;;;;;;;;;;5020038;28;20467;-72
2022/05/31 06:33:39;;;;;;;20.10;2.33;;;;;;;;;;5018250;28;20033;-72
2022/05/31 06:36:07;;;;;;;9.57;2.10;;;;;;;;;;5015542;28;20517;-72
2022/05/31 06:38:33;;;;;;;16.48;2.05;;;;;;;;;;5019997;28;20681;-72
2022/05/31 06:40:59;;;;;;;8.60;1.48;;;;;;;;;;5023886;28;20418;-72
2022/05/31 06:43:25;;;;;;;13.52;1.55;;;;;;;;;;5016163;28;20038;-72
2022/05/31 06:45:51;;;;;;;8.13;1.20;;;;;;;;;;5022117;28;20029;-72
2022/05/31 06:48:17;;;;;;;5.85;1.30;;;;;;;;;;5019789;28;20087;-72
2022/05/31 06:50:43;;;;;;;8.98;1.48;;;;;;;;;;5023175;28;20029;-72
2022/05/31 06:58:59;;;;;;;6.55;1.33;;;;;;;;;;5002253;28;20125;-73
2022/05/31 07:01:31;;;;;;;11.75;2.05;;;;;;;;;;5018253;28;20199;-73
2022/05/31 07:03:58;;;;;;;14.82;1.90;;;;;;;;;;5013171;28;20077;-72
2022/05/31 07:06:24;;;;;;;8.70;2.58;;;;;;;;;;5019678;28;20411;-73
2022/05/31 07:08:50;;;;;;;11.02;1.70;;;;;;;;;;5019756;28;20128;-72
2022/05/31 07:11:16;;;;;;;7.85;1.63;;;;;;;;;;5023172;28;20035;-73
2022/05/31 07:13:42;;;;;;;9.52;2.15;;;;;;;;;;5017883;28;20056;-72
2022/05/31 07:16:08;;;;;;;11.68;1.85;;;;;;;;;;5016392;28;20025;-72
2022/05/31 07:18:34;;;;;;;7.78;1.75;;;;;;;;;;5021852;28;20618;-73
2022/05/31 07:21:01;;;;;;;11.43;1.48;;;;;;;;;;5013320;28;20030;-73
2022/05/31 07:23:27;;;;;;;10.32;2.05;;;;;;;;;;5025000;28;20041;-72
2022/05/31 07:25:53;;;;;;;8.45;1.55;;;;;;;;;;5018730;28;20022;-73
2022/05/31 07:28:19;;;;;;;11.43;2.10;;;;;;;;;;5024224;28;20053;-72
2022/05/31 07:30:45;;;;;;;8.10;1.75;;;;;;;;;;5023523;28;20029;-72
2022/05/31 07:33:12;;;;;;;12.90;2.95;;;;;;;;;;5017963;28;20037;-73
2022/05/31 07:35:41;;;;;;;11.88;1.98;;;;;;;;;;5024483;28;20029;-72
2022/05/31 07:38:08;;;;;;;15.60;3.83;;;;;;;;;;5017390;28;20147;-73
2022/05/31 07:40:34;;;;;;;11.82;2.40;;;;;;;;;;5020228;28;20026;-72
2022/05/31 07:43:01;;;;;;;10.98;2.05;;;;;;;;;;5024061;28;20045;-73
2022/05/31 07:45:27;;;;;;;13.18;2.20;;;;;;;;;;5023984;28;20079;-72
2022/05/31 07:47:53;;;;;;;13.90;2.50;;;;;;;;;;5016464;28;20033;-73
2022/05/31 07:50:19;;;;;;;22.42;4.82;;;;;;;;;;5026240;28;20040;-73
2022/05/31 07:52:46;;;;;;;15.50;4.10;;;;;;;;;;5023324;28;20076;-72
2022/05/31 07:55:12;;;;;;;12.25;3.03;;;;;;;;;;5024849;28;20025;-72
2022/05/31 08:00:23;;;;;;;12.93;2.60;;;;;;;;;;5019893;28;20153;-73
2022/05/31 08:02:49;;;;;;;13.05;2.47;;;;;;;;;;5022337;28;20053;-72
2022/05/31 08:05:15;;;;;;;13.52;3.13;;;;;;;;;;5021732;28;20525;-72
2022/05/31 08:07:41;;;;;;;19.15;5.43;;;;;;;;;;5026386;28;20534;-73
2022/05/31 08:10:08;;;;;;;18.38;3.42;;;;;;;;;;5022419;28;20034;-73
2022/05/31 08:12:34;;;;;;;17.77;2.95;;;;;;;;;;5020174;28;20480;-72
2022/05/31 08:15:01;;;;;;;21.42;3.75;;;;;;;;;;5021947;28;20107;-72
2022/05/31 08:17:27;;;;;;;16.48;4.85;;;;;;;;;;5023213;28;20026;-72
2022/05/31 08:19:54;;;;;;;12.23;4.07;;;;;;;;;;5028055;28;20435;-72
2022/05/31 08:22:20;;;;;;;11.02;3.38;;;;;;;;;;5021701;28;20368;-72
2022/05/31 08:24:46;;;;;;;8.48;2.47;;;;;;;;;;5022566;28;20068;-72
2022/05/31 08:27:13;;;;;;;10.50;2.58;;;;;;;;;;5024402;28;20131;-72
2022/05/31 08:29:39;;;;;;;10.48;2.50;;;;;;;;;;5016825;28;20061;-72
2022/05/31 08:32:06;;;;;;;12.15;2.80;;;;;;;;;;5022700;28;20087;-72
2022/05/31 08:34:32;;;;;;;6.43;1.67;;;;;;;;;;5023964;28;20256;-73
2022/05/31 08:36:58;;;;;;;7.30;1.52;;;;;;;;;;5021049;28;20040;-72
2022/05/31 08:39:24;;;;;;;7.15;1.40;;;;;;;;;;5023380;28;20045;-72
2022/05/31 08:41:52;;;;;;;9.88;3.25;;;;;;;;;;5023946;28;20053;-72
2022/05/31 08:44:24;;;;;;;7.53;2.10;;;;;;;;;;5019664;28;20433;-72
2022/05/31 08:46:53;;;;;;;7.40;1.73;;;;;;;;;;5020824;28;20021;-72
2022/05/31 08:51:52;;;;;;;4.65;1.15;;;;;;;;;;5021176;28;20044;-73
2022/05/31 08:52:19;;;;;;;6.00;1.60;;;;;;;;;;5019938;28;20041;-72
2022/05/31 08:57:35;;;;;;;5.05;1.73;;;;;;;;;;5022479;28;20080;-72
2022/05/31 09:00:05;;;;;;;4.07;1.27;;;;;;;;;;5023306;28;20095;-72
2022/05/31 09:02:43;;;;;;;3.75;0.65;;;;;;;;;;5026317;28;20069;-72
2022/05/31 09:05:13;;;;;;;6.07;0.50;;;;;;;;;;5020999;28;20033;-72
2022/05/31 09:07:50;;;;;;;1.00;0.40;;;;;;;;;;5019660;28;20064;-73
2022/05/31 09:10:25;;;;;;;2.35;0.50;;;;;;;;;;5025125;28;20037;-73
2022/05/31 09:12:56;;;;;;;1.23;0.30;;;;;;;;;;5014744;28;20056;-73
2022/05/31 09:15:25;;;;;;;1.85;0.40;;;;;;;;;;5022348;28;20082;-72
2022/05/31 09:17:58;;;;;;;5.55;0.80;;;;;;;;;;5022990;28;20499;-72
2022/05/31 09:20:24;;;;;;;2.47;0.40;;;;;;;;;;5023536;28;20030;-73
2022/05/31 09:22:50;;;;;;;1.27;0.15;;;;;;;;;;5027072;28;20079;-73
2022/05/31 09:25:16;;;;;;;0.68;0.20;;;;;;;;;;5020431;28;20068;-72
2022/05/31 09:27:44;;;;;;;6.50;0.80;;;;;;;;;;5023966;28;20593;-72
2022/05/31 09:30:13;;;;;;;3.40;0.70;;;;;;;;;;5018636;28;20041;-72
2022/05/31 09:32:52;;;;;;;8.27;1.45;;;;;;;;;;5020990;28;20049;-72
2022/05/31 09:35:40;;;;;;;2.88;0.88;;;;;;;;;;5018782;28;20026;-73
2022/05/31 09:38:24;;;;;;;1.30;0.30;;;;;;;;;;5017951;28;20499;-72
2022/05/31 09:40:52;;;;;;;5.32;0.60;;;;;;;;;;5017009;28;20041;-73
2022/05/31 09:43:49;;;;;;;0.80;0.30;;;;;;;;;;5019619;28;20061;-73
2022/05/31 09:46:29;;;;;;;2.17;0.40;;;;;;;;;;5019939;28;20777;-73
2022/05/31 09:48:57;;;;;;;4.68;0.50;;;;;;;;;;5019687;28;20072;-73
2022/05/31 09:51:23;;;;;;;1.25;0.40;;;;;;;;;;5021167;28;20061;-72
2022/05/31 09:59:24;;;;;;;5.13;1.35;;;;;;;;;;5016101;28;20037;-72
2022/05/31 10:01:51;;;;;;;5.53;0.90;;;;;;;;;;5021848;28;20055;-73
2022/05/31 10:04:26;;;;;;;1.90;0.60;;;;;;;;;;5015411;28;20034;-73
2022/05/31 10:07:04;;;;;;;11.68;1.58;;;;;;;;;;5020009;28;20353;-73
2022/05/31 10:09:37;;;;;;;5.20;0.85;;;;;;;;;;5022953;28;20091;-73
2022/05/31 10:12:22;;;;;;;3.25;0.73;;;;;;;;;;5011861;28;20061;-73
2022/05/31 10:14:50;;;;;;;2.67;0.95;;;;;;;;;;5016771;28;20542;-72
2022/05/31 10:17:34;;;;;;;5.10;1.23;;;;;;;;;;5020556;28;20041;-73
2022/05/31 10:20:12;;;;;;;4.15;1.10;;;;;;;;;;5023317;28;20063;-73
2022/05/31 10:22:40;;;;;;;3.92;0.90;;;;;;;;;;5022306;28;20547;-73
2022/05/31 10:25:23;;;;;;;7.53;1.15;;;;;;;;;;5018286;28;20038;-73
2022/05/31 10:27:55;;;;;;;5.53;1.20;;;;;;;;;;5023201;28;20721;-73
2022/05/31 10:30:22;;;;;;;5.63;1.52;;;;;;;;;;5020870;28;20568;-73
2022/05/31 10:32:54;;;;;;;5.22;1.35;;;;;;;;;;5021717;28;20041;-72
2022/05/31 10:35:24;;;;;;;3.53;1.35;;;;;;;;;;5018237;28;20619;-73
2022/05/31 10:37:55;;;;;;;6.47;1.52;;;;;;;;;;5016012;28;20075;-73
2022/05/31 10:40:23;;;;;;;4.57;1.23;;;;;;;;;;5021046;28;20048;-73
2022/05/31 10:42:52;;;;;;;9.70;1.63;;;;;;;;;;5017369;28;20114;-73
2022/05/31 10:45:22;;;;;;;7.82;1.40;;;;;;;;;;5014022;28;20084;-73
2022/05/31 10:47:48;;;;;;;7.07;1.73;;;;;;;;;;5022425;28;20044;-73
2022/05/31 10:50:15;;;;;;;8.57;1.50;;;;;;;;;;5017320;28;20081;-73
2022/05/31 10:53:03;;;;;;;7.95;1.50;;;;;;;;;;5020458;28;20121;-72
2022/05/31 10:55:34;;;;;;;3.97;0.93;;;;;;;;;;5023454;28;20064;-73
2022/05/31 10:58:12;;;;;;;6.70;1.40;;;;;;;;;;5017703;28;20052;-72
2022/05/31 11:00:47;;;;;;;7.43;1.52;;;;;;;;;;5019785;28;20044;-73
2022/05/31 11:03:32;;;;;;;5.25;1.00;;;;;;;;;;5017661;28;20367;-73
2022/05/31 11:06:07;;;;;;;4.60;1.10;;;;;;;;;;5017806;28;20044;-72
2022/05/31 11:11:37;;;;;;;6.03;1.00;;;;;;;;;;5017243;28;20099;-73
2022/05/31 11:14:23;;;;;;;2.63;1.00;;;;;;;;;;5016869;28;20072;-73
2022/05/31 11:16:49;;;;;;;4.32;1.00;;;;;;;;;;5018435;28;20073;-72
2022/05/31 11:19:16;;;;;;;3.15;1.00;;;;;;;;;;5015026;28;20037;-73
2022/05/31 11:21:48;;;;;;;3.92;1.00;;;;;;;;;;5022780;28;20037;-72
2022/05/31 11:24:29;;;;;;;4.38;0.80;;;;;;;;;;5017709;28;20131;-73
2022/05/31 11:27:04;;;;;;;4.70;0.82;;;;;;;;;;5017738;28;20030;-73
2022/05/31 11:29:51;;;;;;;3.72;0.82;;;;;;;;;;5014660;28;20103;-72
2022/05/31 11:32:34;;;;;;;4.47;1.10;;;;;;;;;;5016993;28;20411;-72
2022/05/31 11:35:09;;;;;;;2.13;0.75;;;;;;;;;;5018980;28;20035;-72
2022/05/31 11:37:35;;;;;;;2.92;0.50;;;;;;;;;;5021489;28;20387;-73
2022/05/31 11:40:08;;;;;;;2.55;0.70;;;;;;;;;;5018190;28;20072;-73
2022/05/31 11:42:37;;;;;;;3.40;0.65;;;;;;;;;;5015838;28;20045;-72
2022/05/31 11:45:07;;;;;;;5.07;0.52;;;;;;;;;;5020764;28;20080;-72
2022/05/31 11:47:52;;;;;;;5.05;0.80;;;;;;;;;;5022481;28;20039;-73
2022/05/31 11:50:37;;;;;;;2.72;0.85;;;;;;;;;;5014537;28;20140;-72
2022/05/31 11:53:18;;;;;;;6.05;1.00;;;;;;;;;;5018894;28;20168;-73
2022/05/31 11:55:49;;;;;;;4.57;1.17;;;;;;;;;;5017793;28;20025;-73
2022/05/31 11:58:15;;;;;;;6.75;0.85;;;;;;;;;;5012643;28;20068;-72
2022/05/31 12:00:44;;;;;;;4.47;1.10;;;;;;;;;;5016041;28;20060;-73
2022/05/31 12:03:22;;;;;;;4.20;0.90;;;;;;;;;;5017920;28;20122;-72
2022/05/31 12:05:50;;;;;;;3.13;1.10;;;;;;;;;;5014120;28;20037;-73
2022/05/31 12:08:19;;;;;;;6.35;0.90;;;;;;;;;;5016256;28;20467;-72
2022/05/31 12:10:47;;;;;;;7.15;1.20;;;;;;;;;;5017613;28;20116;-72
2022/05/31 12:13:15;;;;;;;5.07;0.70;;;;;;;;;;5025737;28;20496;-72
2022/05/31 12:15:43;;;;;;;3.03;0.85;;;;;;;;;;5017738;28;20030;-73
2022/05/31 12:18:28;;;;;;;3.08;1.00;;;;;;;;;;5023200;28;20052;-73
2022/05/31 12:21:12;;;;;;;4.32;1.10;;;;;;;;;;5021217;28;20076;-72
2022/05/31 12:23:41;;;;;;;4.22;1.25;;;;;;;;;;5018806;28;20029;-72
2022/05/31 12:26:16;;;;;;;3.30;1.15;;;;;;;;;;5020069;28;20531;-73
2022/05/31 12:28:49;;;;;;;4.72;1.00;;;;;;;;;;5016621;28;20096;-73
2022/05/31 12:31:18;;;;;;;3.75;1.00;;;;;;;;;;5018621;28;20157;-72
2022/05/31 12:33:46;;;;;;;5.32;0.90;;;;;;;;;;5020517;28;20040;-73
2022/05/31 12:36:14;;;;;;;4.90;1.33;;;;;;;;;;5021039;28;20022;-73
2022/05/31 12:38:55;;;;;;;7.43;1.40;;;;;;;;;;5023678;28;20041;-73
2022/05/31 12:41:33;;;;;;;4.65;1.00;;;;;;;;;;5019760;28;20029;-72
2022/05/31 12:44:00;;;;;;;4.63;1.00;;;;;;;;;;5021590;28;20033;-73
2022/05/31 12:46:46;;;;;;;3.85;1.13;;;;;;;;;;5020055;28;20072;-73
2022/05/31 12:49:21;;;;;;;5.18;1.00;;;;;;;;;;5019370;28;20049;-73
2022/05/31 12:52:05;;;;;;;4.03;0.88;;;;;;;;;;5021829;28;20041;-74
2022/05/31 12:54:45;;;;;;;2.60;0.70;;;;;;;;;;5020570;28;20072;-72
2022/05/31 12:57:25;;;;;;;4.97;0.73;;;;;;;;;;5019890;28;20502;-72
2022/05/31 12:59:53;;;;;;;3.40;0.80;;;;;;;;;;5022268;28;20036;-73
2022/05/31 13:02:38;;;;;;;3.35;0.88;;;;;;;;;;5024823;28;20077;-73
2022/05/31 13:05:09;;;;;;;7.07;1.02;;;;;;;;;;5026286;28;20033;-73
2022/05/31 13:07:43;;;;;;;6.67;1.10;;;;;;;;;;5024029;28;20129;-73
2022/05/31 13:10:30;;;;;;;7.05;1.02;;;;;;;;;;5015630;28;20040;-73
2022/05/31 13:21:29;;;;;;;5.30;0.98;;;;;;;;;;5020370;28;20053;-73
2022/05/31 13:23:56;;;;;;;7.47;1.00;;;;;;;;;;5018465;28;20088;-72
2022/05/31 13:26:33;;;;;;;4.78;1.00;;;;;;;;;;5022759;28;20029;-73
2022/05/31 13:29:07;;;;;;;5.97;1.50;;;;;;;;;;5020396;28;20869;-73
2022/05/31 13:31:37;;;;;;;8.73;1.67;;;;;;;;;;5018747;28;20033;-72
2022/05/31 13:34:08;;;;;;;7.03;1.85;;;;;;;;;;5019983;28;20184;-72
2022/05/31 13:36:41;;;;;;;7.15;1.95;;;;;;;;;;5022561;28;20025;-72
2022/05/31 13:39:11;;;;;;;8.45;1.30;;;;;;;;;;5021682;28;20029;-73
2022/05/31 13:41:43;;;;;;;8.45;1.63;;;;;;;;;;5018671;28;20034;-73
2022/05/31 13:44:09;;;;;;;;;;;;;;;;;;5020817;28;20064;-73
2022/05/31 13:46:38;;;;;;;8.00;1.83;;;;;;;;;;5022230;28;19964;-73
2022/05/31 13:49:05;;;;;;;8.13;2.03;;;;;;;;;;5020255;28;20829;-72
2022/05/31 13:51:32;;;;;;;9.05;2.22;;;;;;;;;;5020491;28;20541;-72
2022/05/31 13:54:11;;;;;;;6.07;2.08;;;;;;;;;;5024418;28;20057;-73
2022/05/31 13:56:37;;;;;;;6.75;1.95;;;;;;;;;;5022333;28;20030;-73
2022/05/31 13:59:04;;;;;;;6.00;2.05;;;;;;;;;;5017954;28;20030;-72
2022/05/31 14:01:40;;;;;;;15.00;2.60;;;;;;;;;;5019058;28;20065;-72
2022/05/31 14:04:19;;;;;;;5.72;1.50;;;;;;;;;;5026565;28;20026;-73
2022/05/31 14:06:46;;;;;;;12.07;3.28;;;;;;;;;;5021978;28;20033;-73
2022/05/31 14:09:15;;;;;;;15.88;4.63;;;;;;;;;;5024466;28;20061;-73
2022/05/31 14:11:44;;;;;;;10.20;3.55;;;;;;;;;;5019705;28;20041;-73
2022/05/31 14:14:30;;;;;;;9.52;3.75;;;;;;;;;;5013187;28;20058;-72
2022/05/31 14:16:57;;;;;;;6.63;2.95;;;;;;;;;;5019092;28;20034;-73
2022/05/31 14:19:28;;;;;;;9.35;4.40;;;;;;;;;;5022469;28;20033;-73
2022/05/31 14:21:55;;;;;;;9.52;5.72;;;;;;;;;;5019171;28;20064;-73
2022/05/31 14:24:23;;;;;;;9.70;5.80;;;;;;;;;;5025216;28;20123;-72
2022/05/31 14:26:51;;;;;;;8.15;3.80;;;;;;;;;;5022413;28;20388;-72
2022/05/31 14:29:17;;;;;;;8.80;1.80;;;;;;;;;;5023301;28;20403;-73
2022/05/31 14:31:50;;;;;;;7.97;2.65;;;;;;;;;;5024114;28;20368;-72
2022/05/31 14:34:27;;;;;;;11.38;3.70;;;;;;;;;;5022212;28;20025;-73
2022/05/31 14:36:55;;;;;;;10.73;5.72;;;;;;;;;;5018548;28;20068;-73
2022/05/31 14:39:23;;;;;;;10.80;3.65;;;;;;;;;;5022407;28;20112;-73
2022/05/31 14:41:54;;;;;;;10.25;3.30;;;;;;;;;;5019885;28;20033;-73
2022/05/31 14:44:29;;;;;;;10.63;2.80;;;;;;;;;;5023302;28;20029;-72
2022/05/31 14:47:05;;;;;;;12.10;3.80;;;;;;;;;;5014479;28;20493;-72
2022/05/31 14:49:31;;;;;;;8.80;4.78;;;;;;;;;;5014593;28;20048;-72
2022/05/31 14:51:57;;;;;;;9.38;4.53;;;;;;;;;;5015530;28;20044;-72
2022/05/31 14:54:37;;;;;;;12.32;4.32;;;;;;;;;;5019296;28;20375;-72
2022/05/31 14:57:04;;;;;;;10.13;2.42;;;;;;;;;;5020816;28;20040;-73
2022/05/31 14:59:32;;;;;;;10.32;2.53;;;;;;;;;;5020376;28;20037;-72
2022/05/31 15:01:58;;;;;;;10.07;2.53;;;;;;;;;;5021943;28;20147;-72
2022/05/31 15:04:26;;;;;;;10.35;2.70;;;;;;;;;;5017480;28;20044;-72
2022/05/31 15:06:58;;;;;;;10.98;2.83;;;;;;;;;;5019346;28;20037;-72
2022/05/31 15:09:29;;;;;;;13.60;2.70;;;;;;;;;;5016741;28;20034;-72
2022/05/31 15:20:14;;;;;;;18.65;7.72;;;;;;;;;;5019880;28;20041;-72
2022/05/31 15:22:40;;;;;;;15.18;11.00;;;;;;;;;;5015937;28;20034;-73
2022/05/31 15:25:07;;;;;;;14.98;9.85;;;;;;;;;;5020988;28;20064;-72
2022/05/31 15:27:34;;;;;;;10.02;4.53;;;;;;;;;;5015426;28;20049;-73
2022/05/31 15:30:00;;;;;;;6.95;3.42;;;;;;;;;;5017201;28;20049;-73
2022/05/31 15:32:26;;;;;;;11.70;6.70;;;;;;;;;;5018201;28;20037;-72
2022/05/31 15:34:52;;;;;;;13.18;8.15;;;;;;;;;;5021531;28;20025;-73